sensor_id;sensor_type;location;lat;lon;timestamp;temperature;humidity
45849;DHT22;31567;54.600;9.842;2024-02-21T00:02:21;9.30;99.90
45849;DHT22;31567;54.600;9.842;2024-02-21T00:06:01;9.40;99.90
45849;DHT22;31567;54.600;9.842;2024-02-21T00:09:40;9.40;99.90
45849;DHT22;31567;54.600;9.842;2024-02-21T00:13:20;9.40;99.90
45849;DHT22;31567;54.600;9.842;2024-02-21T00:17:00;9.40;99.90
45849;DHT22;31567;54.600;9.842;2024-02-21T00:20:39;9.40;99.90
45849;DHT22;31567;54.600;9.842;2024-02-21T00:24:19;9.40;99.90
45849;DHT22;31567;54.600;9.842;2024-02-21T00:27:58;9.40;99.90
45849;DHT22;31567;54.600;9.842;2024-02-21T00:31:38;9.40;99.90
45849;DHT22;31567;54.600;9.842;2024-02-21T00:35:17;9.50;99.90
45849;DHT22;31567;54.600;9.842;2024-02-21T00:38:57;9.50;99.90
45849;DHT22;31567;54.600;9.842;2024-02-21T00:42:36;9.50;99.90
45849;DHT22;31567;54.600;9.842;2024-02-21T00:46:16;9.60;99.90
45849;DHT22;31567;54.600;9.842;2024-02-21T00:49:55;9.60;99.90
45849;DHT22;31567;54.600;9.842;2024-02-21T00:53:35;9.70;99.90
45849;DHT22;31567;54.600;9.842;2024-02-21T00:57:17;9.60;99.90
45849;DHT22;31567;54.600;9.842;2024-02-21T01:00:57;9.70;99.90
45849;DHT22;31567;54.600;9.842;2024-02-21T01:04:36;9.70;99.90
45849;DHT22;31567;54.600;9.842;2024-02-21T01:08:16;9.60;99.90
45849;DHT22;31567;54.600;9.842;2024-02-21T01:11:55;9.70;99.90
45849;DHT22;31567;54.600;9.842;2024-02-21T01:15:35;9.70;99.90
45849;DHT22;31567;54.600;9.842;2024-02-21T01:19:14;9.70;99.90
45849;DHT22;31567;54.600;9.842;2024-02-21T01:22:54;9.70;99.90
45849;DHT22;31567;54.600;9.842;2024-02-21T01:26:33;9.70;99.90
45849;DHT22;31567;54.600;9.842;2024-02-21T01:30:13;9.70;99.90
45849;DHT22;31567;54.600;9.842;2024-02-21T01:33:52;9.70;99.90
45849;DHT22;31567;54.600;9.842;2024-02-21T01:37:32;9.70;99.90
45849;DHT22;31567;54.600;9.842;2024-02-21T01:41:11;9.70;99.90
45849;DHT22;31567;54.600;9.842;2024-02-21T01:44:51;9.70;99.90
45849;DHT22;31567;54.600;9.842;2024-02-21T01:48:30;9.60;99.90
45849;DHT22;31567;54.600;9.842;2024-02-21T01:52:12;9.60;99.90
45849;DHT22;31567;54.600;9.842;2024-02-21T01:55:53;9.70;99.90
45849;DHT22;31567;54.600;9.842;2024-02-21T01:59:33;9.60;99.90
45849;DHT22;31567;54.600;9.842;2024-02-21T02:03:13;9.70;99.90
45849;DHT22;31567;54.600;9.842;2024-02-21T02:07:02;9.70;99.90
45849;DHT22;31567;54.600;9.842;2024-02-21T02:10:43;9.70;99.90
45849;DHT22;31567;54.600;9.842;2024-02-21T02:14:22;9.60;99.90
45849;DHT22;31567;54.600;9.842;2024-02-21T02:18:02;9.60;99.90
45849;DHT22;31567;54.600;9.842;2024-02-21T02:21:46;9.60;99.90
45849;DHT22;31567;54.600;9.842;2024-02-21T02:25:26;9.60;99.90
45849;DHT22;31567;54.600;9.842;2024-02-21T02:29:06;9.60;99.90
45849;DHT22;31567;54.600;9.842;2024-02-21T02:32:45;9.60;99.90
45849;DHT22;31567;54.600;9.842;2024-02-21T02:36:25;9.60;99.90
45849;DHT22;31567;54.600;9.842;2024-02-21T02:40:08;9.60;99.90
45849;DHT22;31567;54.600;9.842;2024-02-21T02:43:47;9.60;99.90
45849;DHT22;31567;54.600;9.842;2024-02-21T02:47:27;9.60;99.90
45849;DHT22;31567;54.600;9.842;2024-02-21T02:51:07;9.60;99.90
45849;DHT22;31567;54.600;9.842;2024-02-21T02:54:46;9.60;99.90
45849;DHT22;31567;54.600;9.842;2024-02-21T02:58:31;9.60;99.90
45849;DHT22;31567;54.600;9.842;2024-02-21T03:02:10;9.50;99.90
45849;DHT22;31567;54.600;9.842;2024-02-21T03:05:50;9.50;99.90
45849;DHT22;31567;54.600;9.842;2024-02-21T03:09:29;9.50;99.90
45849;DHT22;31567;54.600;9.842;2024-02-21T03:13:09;9.50;99.90
45849;DHT22;31567;54.600;9.842;2024-02-21T03:16:51;9.50;99.90
45849;DHT22;31567;54.600;9.842;2024-02-21T03:20:31;9.50;99.90
45849;DHT22;31567;54.600;9.842;2024-02-21T03:24:10;9.40;99.90
45849;DHT22;31567;54.600;9.842;2024-02-21T03:27:50;9.40;99.90
45849;DHT22;31567;54.600;9.842;2024-02-21T03:31:29;9.40;99.90
45849;DHT22;31567;54.600;9.842;2024-02-21T03:35:09;9.50;99.90
45849;DHT22;31567;54.600;9.842;2024-02-21T03:38:49;9.40;99.90
45849;DHT22;31567;54.600;9.842;2024-02-21T03:42:28;9.40;99.90
45849;DHT22;31567;54.600;9.842;2024-02-21T03:46:09;9.40;99.90
45849;DHT22;31567;54.600;9.842;2024-02-21T03:49:49;9.30;99.90
45849;DHT22;31567;54.600;9.842;2024-02-21T03:53:29;9.30;99.90
45849;DHT22;31567;54.600;9.842;2024-02-21T03:57:08;9.30;99.90
45849;DHT22;31567;54.600;9.842;2024-02-21T04:00:48;9.30;99.90
45849;DHT22;31567;54.600;9.842;2024-02-21T04:04:27;9.30;99.90
45849;DHT22;31567;54.600;9.842;2024-02-21T04:08:07;9.20;99.90
45849;DHT22;31567;54.600;9.842;2024-02-21T04:11:47;9.30;99.90
45849;DHT22;31567;54.600;9.842;2024-02-21T04:15:27;9.30;99.90
45849;DHT22;31567;54.600;9.842;2024-02-21T04:19:06;9.30;99.90
45849;DHT22;31567;54.600;9.842;2024-02-21T04:22:46;9.30;99.90
45849;DHT22;31567;54.600;9.842;2024-02-21T04:26:26;9.20;99.90
45849;DHT22;31567;54.600;9.842;2024-02-21T04:30:06;9.20;99.90
45849;DHT22;31567;54.600;9.842;2024-02-21T04:33:46;9.20;99.90
45849;DHT22;31567;54.600;9.842;2024-02-21T04:37:25;9.20;99.90
45849;DHT22;31567;54.600;9.842;2024-02-21T04:41:05;9.20;99.90
45849;DHT22;31567;54.600;9.842;2024-02-21T04:44:45;9.20;99.90
45849;DHT22;31567;54.600;9.842;2024-02-21T04:48:24;9.20;99.90
45849;DHT22;31567;54.600;9.842;2024-02-21T04:52:04;9.20;99.90
45849;DHT22;31567;54.600;9.842;2024-02-21T04:55:43;9.20;99.90
45849;DHT22;31567;54.600;9.842;2024-02-21T04:59:23;9.20;99.90
45849;DHT22;31567;54.600;9.842;2024-02-21T05:03:03;9.20;99.90
45849;DHT22;31567;54.600;9.842;2024-02-21T05:06:42;9.20;99.90
45849;DHT22;31567;54.600;9.842;2024-02-21T05:10:22;9.20;99.90
45849;DHT22;31567;54.600;9.842;2024-02-21T05:14:02;9.20;99.90
45849;DHT22;31567;54.600;9.842;2024-02-21T05:17:43;9.20;99.90
45849;DHT22;31567;54.600;9.842;2024-02-21T05:21:25;9.20;99.90
45849;DHT22;31567;54.600;9.842;2024-02-21T05:25:06;9.20;99.90
45849;DHT22;31567;54.600;9.842;2024-02-21T05:28:46;9.20;99.90
45849;DHT22;31567;54.600;9.842;2024-02-21T05:32:26;9.10;99.90
45849;DHT22;31567;54.600;9.842;2024-02-21T05:36:06;9.10;99.90
45849;DHT22;31567;54.600;9.842;2024-02-21T05:39:46;9.20;99.90
45849;DHT22;31567;54.600;9.842;2024-02-21T05:43:25;9.00;99.90
45849;DHT22;31567;54.600;9.842;2024-02-21T05:47:05;9.00;99.90
45849;DHT22;31567;54.600;9.842;2024-02-21T05:50:49;8.90;99.90
45849;DHT22;31567;54.600;9.842;2024-02-21T05:54:28;8.90;99.90
45849;DHT22;31567;54.600;9.842;2024-02-21T05:58:08;9.00;99.90
45849;DHT22;31567;54.600;9.842;2024-02-21T06:01:57;8.90;99.90
45849;DHT22;31567;54.600;9.842;2024-02-21T06:05:38;8.90;99.90
45849;DHT22;31567;54.600;9.842;2024-02-21T06:09:18;8.90;99.90
45849;DHT22;31567;54.600;9.842;2024-02-21T06:12:57;8.90;99.90
45849;DHT22;31567;54.600;9.842;2024-02-21T06:16:37;8.80;99.90
45849;DHT22;31567;54.600;9.842;2024-02-21T06:20:16;8.80;99.90
45849;DHT22;31567;54.600;9.842;2024-02-21T06:23:56;8.70;99.90
45849;DHT22;31567;54.600;9.842;2024-02-21T06:27:35;8.70;99.90
45849;DHT22;31567;54.600;9.842;2024-02-21T06:31:15;8.70;99.90
45849;DHT22;31567;54.600;9.842;2024-02-21T06:34:55;8.70;99.90
45849;DHT22;31567;54.600;9.842;2024-02-21T06:38:35;8.60;99.90
45849;DHT22;31567;54.600;9.842;2024-02-21T06:42:14;8.60;99.90
45849;DHT22;31567;54.600;9.842;2024-02-21T06:45:54;8.50;99.90
45849;DHT22;31567;54.600;9.842;2024-02-21T06:49:34;8.50;99.90
45849;DHT22;31567;54.600;9.842;2024-02-21T06:53:14;8.40;99.90
45849;DHT22;31567;54.600;9.842;2024-02-21T06:56:53;8.40;99.90
45849;DHT22;31567;54.600;9.842;2024-02-21T07:00:33;8.40;99.90
45849;DHT22;31567;54.600;9.842;2024-02-21T07:04:12;8.40;99.90
45849;DHT22;31567;54.600;9.842;2024-02-21T07:07:52;8.40;99.90
45849;DHT22;31567;54.600;9.842;2024-02-21T07:11:31;8.40;99.90
45849;DHT22;31567;54.600;9.842;2024-02-21T07:15:11;8.40;99.90
45849;DHT22;31567;54.600;9.842;2024-02-21T07:18:50;8.40;99.90
45849;DHT22;31567;54.600;9.842;2024-02-21T07:22:30;8.40;99.90
45849;DHT22;31567;54.600;9.842;2024-02-21T07:26:09;8.40;99.90
45849;DHT22;31567;54.600;9.842;2024-02-21T07:29:49;8.30;99.90
45849;DHT22;31567;54.600;9.842;2024-02-21T07:33:29;8.30;99.90
45849;DHT22;31567;54.600;9.842;2024-02-21T07:37:10;8.30;99.90
45849;DHT22;31567;54.600;9.842;2024-02-21T07:40:49;8.40;99.90
45849;DHT22;31567;54.600;9.842;2024-02-21T07:44:29;8.40;99.90
45849;DHT22;31567;54.600;9.842;2024-02-21T07:48:08;8.30;99.90
45849;DHT22;31567;54.600;9.842;2024-02-21T07:51:48;8.30;99.90
45849;DHT22;31567;54.600;9.842;2024-02-21T07:55:27;8.30;99.90
45849;DHT22;31567;54.600;9.842;2024-02-21T07:59:07;8.30;99.90
45849;DHT22;31567;54.600;9.842;2024-02-21T08:02:48;8.40;99.90
45849;DHT22;31567;54.600;9.842;2024-02-21T08:06:28;8.40;99.90
45849;DHT22;31567;54.600;9.842;2024-02-21T08:10:08;8.40;99.90
45849;DHT22;31567;54.600;9.842;2024-02-21T08:13:47;8.40;99.90
45849;DHT22;31567;54.600;9.842;2024-02-21T08:17:27;8.40;99.90
45849;DHT22;31567;54.600;9.842;2024-02-21T08:21:06;8.50;99.90
45849;DHT22;31567;54.600;9.842;2024-02-21T08:24:46;8.60;99.90
45849;DHT22;31567;54.600;9.842;2024-02-21T08:28:25;8.60;99.90
45849;DHT22;31567;54.600;9.842;2024-02-21T08:32:05;8.60;99.90
45849;DHT22;31567;54.600;9.842;2024-02-21T08:35:45;8.60;99.90
45849;DHT22;31567;54.600;9.842;2024-02-21T08:39:24;8.70;99.90
45849;DHT22;31567;54.600;9.842;2024-02-21T08:43:04;8.70;99.90
45849;DHT22;31567;54.600;9.842;2024-02-21T08:46:43;8.80;99.90
45849;DHT22;31567;54.600;9.842;2024-02-21T08:50:23;8.80;99.90
45849;DHT22;31567;54.600;9.842;2024-02-21T08:54:02;8.80;99.90
45849;DHT22;31567;54.600;9.842;2024-02-21T08:57:42;8.90;99.90
45849;DHT22;31567;54.600;9.842;2024-02-21T09:01:21;9.00;99.90
45849;DHT22;31567;54.600;9.842;2024-02-21T09:05:01;9.00;99.90
45849;DHT22;31567;54.600;9.842;2024-02-21T09:08:41;9.00;99.90
45849;DHT22;31567;54.600;9.842;2024-02-21T09:12:20;9.10;99.90
45849;DHT22;31567;54.600;9.842;2024-02-21T09:16:00;9.20;99.90
45849;DHT22;31567;54.600;9.842;2024-02-21T09:19:39;9.30;99.90
45849;DHT22;31567;54.600;9.842;2024-02-21T09:23:19;9.20;99.90
45849;DHT22;31567;54.600;9.842;2024-02-21T09:26:59;9.20;99.90
45849;DHT22;31567;54.600;9.842;2024-02-21T09:30:39;9.20;99.90
45849;DHT22;31567;54.600;9.842;2024-02-21T09:34:18;9.20;99.90
45849;DHT22;31567;54.600;9.842;2024-02-21T09:37:58;9.30;99.90
45849;DHT22;31567;54.600;9.842;2024-02-21T09:41:42;9.30;99.90
45849;DHT22;31567;54.600;9.842;2024-02-21T09:45:24;9.30;99.90
45849;DHT22;31567;54.600;9.842;2024-02-21T09:52:54;9.30;99.90
45849;DHT22;31567;54.600;9.842;2024-02-21T09:56:34;9.40;99.90
45849;DHT22;31567;54.600;9.842;2024-02-21T10:00:14;9.40;99.90
45849;DHT22;31567;54.600;9.842;2024-02-21T10:04:00;9.50;99.90
45849;DHT22;31567;54.600;9.842;2024-02-21T10:07:42;9.50;99.90
45849;DHT22;31567;54.600;9.842;2024-02-21T10:11:25;9.60;99.90
45849;DHT22;31567;54.600;9.842;2024-02-21T10:15:06;9.70;99.90
45849;DHT22;31567;54.600;9.842;2024-02-21T10:18:46;9.70;99.90
45849;DHT22;31567;54.600;9.842;2024-02-21T10:22:25;9.80;99.90
45849;DHT22;31567;54.600;9.842;2024-02-21T10:26:07;9.80;99.90
45849;DHT22;31567;54.600;9.842;2024-02-21T10:29:49;9.90;99.90
45849;DHT22;31567;54.600;9.842;2024-02-21T10:33:30;10.00;99.90
45849;DHT22;31567;54.600;9.842;2024-02-21T10:37:11;10.10;99.90
45849;DHT22;31567;54.600;9.842;2024-02-21T10:40:51;10.30;99.90
45849;DHT22;31567;54.600;9.842;2024-02-21T10:44:36;10.40;99.90
45849;DHT22;31567;54.600;9.842;2024-02-21T10:48:16;10.40;99.90
45849;DHT22;31567;54.600;9.842;2024-02-21T10:52:15;10.40;99.90
45849;DHT22;31567;54.600;9.842;2024-02-21T10:56:04;10.30;99.90
45849;DHT22;31567;54.600;9.842;2024-02-21T10:59:48;10.30;99.90
45849;DHT22;31567;54.600;9.842;2024-02-21T11:03:28;10.30;99.90
45849;DHT22;31567;54.600;9.842;2024-02-21T11:07:07;10.40;99.90
45849;DHT22;31567;54.600;9.842;2024-02-21T11:10:47;10.50;99.90
45849;DHT22;31567;54.600;9.842;2024-02-21T11:14:28;10.70;99.90
45849;DHT22;31567;54.600;9.842;2024-02-21T11:18:07;10.70;99.90
45849;DHT22;31567;54.600;9.842;2024-02-21T11:21:47;10.70;99.90
45849;DHT22;31567;54.600;9.842;2024-02-21T11:25:29;10.70;99.90
45849;DHT22;31567;54.600;9.842;2024-02-21T11:29:23;10.80;99.90
45849;DHT22;31567;54.600;9.842;2024-02-21T11:33:05;10.90;99.90
45849;DHT22;31567;54.600;9.842;2024-02-21T11:36:50;11.00;99.90
45849;DHT22;31567;54.600;9.842;2024-02-21T11:40:30;10.90;99.90
45849;DHT22;31567;54.600;9.842;2024-02-21T11:44:09;10.90;99.90
45849;DHT22;31567;54.600;9.842;2024-02-21T11:47:49;11.00;99.90
45849;DHT22;31567;54.600;9.842;2024-02-21T11:51:28;11.10;99.90
45849;DHT22;31567;54.600;9.842;2024-02-21T11:55:08;11.00;99.90
45849;DHT22;31567;54.600;9.842;2024-02-21T11:58:48;11.10;99.90
45849;DHT22;31567;54.600;9.842;2024-02-21T12:02:28;11.10;99.90
45849;DHT22;31567;54.600;9.842;2024-02-21T12:06:07;11.20;99.90
45849;DHT22;31567;54.600;9.842;2024-02-21T12:09:47;11.20;99.90
45849;DHT22;31567;54.600;9.842;2024-02-21T12:13:27;11.30;99.90
45849;DHT22;31567;54.600;9.842;2024-02-21T12:17:06;11.20;99.90
45849;DHT22;31567;54.600;9.842;2024-02-21T12:20:48;11.20;99.90
45849;DHT22;31567;54.600;9.842;2024-02-21T12:24:28;11.10;99.90
45849;DHT22;31567;54.600;9.842;2024-02-21T12:28:08;11.10;99.90
45849;DHT22;31567;54.600;9.842;2024-02-21T12:31:48;11.00;99.90
45849;DHT22;31567;54.600;9.842;2024-02-21T12:35:28;10.90;99.90
45849;DHT22;31567;54.600;9.842;2024-02-21T12:39:07;10.80;99.90
45849;DHT22;31567;54.600;9.842;2024-02-21T12:42:47;10.80;99.90
45849;DHT22;31567;54.600;9.842;2024-02-21T12:46:27;10.80;99.90
45849;DHT22;31567;54.600;9.842;2024-02-21T12:50:07;10.80;99.90
45849;DHT22;31567;54.600;9.842;2024-02-21T12:53:49;10.80;99.90
45849;DHT22;31567;54.600;9.842;2024-02-21T12:57:29;10.80;99.90
45849;DHT22;31567;54.600;9.842;2024-02-21T13:01:09;10.80;99.90
45849;DHT22;31567;54.600;9.842;2024-02-21T13:04:48;10.80;99.90
45849;DHT22;31567;54.600;9.842;2024-02-21T13:08:28;10.70;99.90
45849;DHT22;31567;54.600;9.842;2024-02-21T13:12:07;10.80;99.90
45849;DHT22;31567;54.600;9.842;2024-02-21T13:15:47;10.70;99.90
45849;DHT22;31567;54.600;9.842;2024-02-21T13:19:26;10.70;99.90
45849;DHT22;31567;54.600;9.842;2024-02-21T13:23:06;10.70;99.90
45849;DHT22;31567;54.600;9.842;2024-02-21T13:26:45;10.70;99.90
45849;DHT22;31567;54.600;9.842;2024-02-21T13:30:25;10.70;99.90
45849;DHT22;31567;54.600;9.842;2024-02-21T13:34:05;10.70;99.90
45849;DHT22;31567;54.600;9.842;2024-02-21T13:37:44;10.60;99.90
45849;DHT22;31567;54.600;9.842;2024-02-21T13:41:24;10.60;99.90
45849;DHT22;31567;54.600;9.842;2024-02-21T13:45:04;10.50;99.90
45849;DHT22;31567;54.600;9.842;2024-02-21T13:48:47;10.50;99.90
45849;DHT22;31567;54.600;9.842;2024-02-21T13:52:27;10.30;99.90
45849;DHT22;31567;54.600;9.842;2024-02-21T13:56:06;10.30;99.90
45849;DHT22;31567;54.600;9.842;2024-02-21T13:59:48;10.30;99.90
45849;DHT22;31567;54.600;9.842;2024-02-21T14:03:28;10.40;99.90
45849;DHT22;31567;54.600;9.842;2024-02-21T14:07:07;10.30;99.90
45849;DHT22;31567;54.600;9.842;2024-02-21T14:10:48;10.40;99.90
45849;DHT22;31567;54.600;9.842;2024-02-21T14:14:27;10.40;99.90
45849;DHT22;31567;54.600;9.842;2024-02-21T14:18:07;10.30;99.90
45849;DHT22;31567;54.600;9.842;2024-02-21T14:21:48;10.40;99.90
45849;DHT22;31567;54.600;9.842;2024-02-21T14:25:28;10.40;99.90
45849;DHT22;31567;54.600;9.842;2024-02-21T14:29:07;10.40;99.90
45849;DHT22;31567;54.600;9.842;2024-02-21T14:32:47;10.40;99.90
45849;DHT22;31567;54.600;9.842;2024-02-21T14:36:26;10.30;99.90
45849;DHT22;31567;54.600;9.842;2024-02-21T14:40:06;10.20;99.90
45849;DHT22;31567;54.600;9.842;2024-02-21T14:43:46;10.10;99.90
45849;DHT22;31567;54.600;9.842;2024-02-21T14:47:26;10.10;99.90
45849;DHT22;31567;54.600;9.842;2024-02-21T14:51:05;10.10;99.90
45849;DHT22;31567;54.600;9.842;2024-02-21T14:54:45;10.00;99.90
45849;DHT22;31567;54.600;9.842;2024-02-21T14:58:28;10.00;99.90
45849;DHT22;31567;54.600;9.842;2024-02-21T15:02:07;10.00;99.90
45849;DHT22;31567;54.600;9.842;2024-02-21T15:05:48;9.90;99.90
45849;DHT22;31567;54.600;9.842;2024-02-21T15:09:28;10.00;99.90
45849;DHT22;31567;54.600;9.842;2024-02-21T15:13:07;9.90;99.90
45849;DHT22;31567;54.600;9.842;2024-02-21T15:16:47;9.90;99.90
45849;DHT22;31567;54.600;9.842;2024-02-21T15:20:26;9.90;99.90
45849;DHT22;31567;54.600;9.842;2024-02-21T15:24:07;9.80;99.90
45849;DHT22;31567;54.600;9.842;2024-02-21T15:27:46;9.80;99.90
45849;DHT22;31567;54.600;9.842;2024-02-21T15:31:26;9.80;99.90
45849;DHT22;31567;54.600;9.842;2024-02-21T15:35:06;9.80;99.90
45849;DHT22;31567;54.600;9.842;2024-02-21T15:38:46;9.70;99.90
45849;DHT22;31567;54.600;9.842;2024-02-21T15:42:25;9.80;99.90
45849;DHT22;31567;54.600;9.842;2024-02-21T15:46:05;9.80;99.90
45849;DHT22;31567;54.600;9.842;2024-02-21T15:49:45;9.80;99.90
45849;DHT22;31567;54.600;9.842;2024-02-21T15:53:24;9.80;99.90
45849;DHT22;31567;54.600;9.842;2024-02-21T15:57:04;9.80;99.90
45849;DHT22;31567;54.600;9.842;2024-02-21T16:00:45;9.80;99.90
45849;DHT22;31567;54.600;9.842;2024-02-21T16:04:24;9.80;99.90
45849;DHT22;31567;54.600;9.842;2024-02-21T16:08:04;9.90;99.90
45849;DHT22;31567;54.600;9.842;2024-02-21T16:11:44;9.80;99.90
45849;DHT22;31567;54.600;9.842;2024-02-21T16:15:24;9.80;99.90
45849;DHT22;31567;54.600;9.842;2024-02-21T16:19:03;9.80;99.90
45849;DHT22;31567;54.600;9.842;2024-02-21T16:22:44;9.80;99.90
45849;DHT22;31567;54.600;9.842;2024-02-21T16:26:24;9.80;99.90
45849;DHT22;31567;54.600;9.842;2024-02-21T16:30:04;9.80;99.90
45849;DHT22;31567;54.600;9.842;2024-02-21T16:33:45;9.80;99.90
45849;DHT22;31567;54.600;9.842;2024-02-21T16:37:24;9.90;99.90
45849;DHT22;31567;54.600;9.842;2024-02-21T16:41:04;9.90;99.90
45849;DHT22;31567;54.600;9.842;2024-02-21T16:44:43;10.00;99.90
45849;DHT22;31567;54.600;9.842;2024-02-21T16:48:23;9.90;99.90
45849;DHT22;31567;54.600;9.842;2024-02-21T16:52:02;9.90;99.90
45849;DHT22;31567;54.600;9.842;2024-02-21T16:55:43;9.90;99.90
45849;DHT22;31567;54.600;9.842;2024-02-21T16:59:23;9.90;99.90
45849;DHT22;31567;54.600;9.842;2024-02-21T17:03:02;9.90;99.90
45849;DHT22;31567;54.600;9.842;2024-02-21T17:06:42;9.90;99.90
45849;DHT22;31567;54.600;9.842;2024-02-21T17:10:21;9.90;99.90
45849;DHT22;31567;54.600;9.842;2024-02-21T17:14:01;9.90;99.90
45849;DHT22;31567;54.600;9.842;2024-02-21T17:17:42;9.90;99.90
45849;DHT22;31567;54.600;9.842;2024-02-21T17:21:22;9.90;99.90
45849;DHT22;31567;54.600;9.842;2024-02-21T17:25:01;10.00;99.90
45849;DHT22;31567;54.600;9.842;2024-02-21T17:28:42;10.00;99.90
45849;DHT22;31567;54.600;9.842;2024-02-21T17:32:21;9.90;99.90
45849;DHT22;31567;54.600;9.842;2024-02-21T17:36:01;9.90;99.90
45849;DHT22;31567;54.600;9.842;2024-02-21T17:39:41;9.90;99.90
45849;DHT22;31567;54.600;9.842;2024-02-21T17:43:21;9.90;99.90
45849;DHT22;31567;54.600;9.842;2024-02-21T17:47:00;9.80;99.90
45849;DHT22;31567;54.600;9.842;2024-02-21T17:50:40;9.80;99.90
45849;DHT22;31567;54.600;9.842;2024-02-21T17:54:19;9.80;99.90
45849;DHT22;31567;54.600;9.842;2024-02-21T17:57:59;9.80;99.90
45849;DHT22;31567;54.600;9.842;2024-02-21T18:01:38;9.80;99.90
45849;DHT22;31567;54.600;9.842;2024-02-21T18:05:18;9.80;99.90
45849;DHT22;31567;54.600;9.842;2024-02-21T18:08:57;9.80;99.90
45849;DHT22;31567;54.600;9.842;2024-02-21T18:12:38;9.80;99.90
45849;DHT22;31567;54.600;9.842;2024-02-21T18:16:17;9.80;99.90
45849;DHT22;31567;54.600;9.842;2024-02-21T18:19:57;9.80;99.90
45849;DHT22;31567;54.600;9.842;2024-02-21T18:23:38;9.80;99.90
45849;DHT22;31567;54.600;9.842;2024-02-21T18:27:18;9.80;99.90
45849;DHT22;31567;54.600;9.842;2024-02-21T18:30:58;9.80;99.90
45849;DHT22;31567;54.600;9.842;2024-02-21T18:34:38;9.80;99.90
45849;DHT22;31567;54.600;9.842;2024-02-21T18:38:17;9.80;99.90
45849;DHT22;31567;54.600;9.842;2024-02-21T18:41:57;9.80;99.90
45849;DHT22;31567;54.600;9.842;2024-02-21T18:45:36;9.80;99.90
45849;DHT22;31567;54.600;9.842;2024-02-21T18:49:16;9.70;99.90
45849;DHT22;31567;54.600;9.842;2024-02-21T18:52:56;9.80;99.90
45849;DHT22;31567;54.600;9.842;2024-02-21T18:56:38;9.80;99.90
45849;DHT22;31567;54.600;9.842;2024-02-21T19:00:19;9.70;99.90
45849;DHT22;31567;54.600;9.842;2024-02-21T19:04:02;9.70;99.90
45849;DHT22;31567;54.600;9.842;2024-02-21T19:07:42;9.70;99.90
45849;DHT22;31567;54.600;9.842;2024-02-21T19:11:21;9.80;99.90
45849;DHT22;31567;54.600;9.842;2024-02-21T19:15:01;9.80;99.90
45849;DHT22;31567;54.600;9.842;2024-02-21T19:18:41;9.80;99.90
45849;DHT22;31567;54.600;9.842;2024-02-21T19:22:21;9.80;99.90
45849;DHT22;31567;54.600;9.842;2024-02-21T19:26:07;9.80;99.90
45849;DHT22;31567;54.600;9.842;2024-02-21T19:29:47;9.80;99.90
45849;DHT22;31567;54.600;9.842;2024-02-21T19:33:27;9.80;99.90
45849;DHT22;31567;54.600;9.842;2024-02-21T19:37:06;9.70;99.90
45849;DHT22;31567;54.600;9.842;2024-02-21T19:40:46;9.80;99.90
45849;DHT22;31567;54.600;9.842;2024-02-21T19:44:25;9.70;99.90
45849;DHT22;31567;54.600;9.842;2024-02-21T19:48:05;9.80;99.90
45849;DHT22;31567;54.600;9.842;2024-02-21T19:51:46;9.80;99.90
45849;DHT22;31567;54.600;9.842;2024-02-21T19:55:26;9.80;99.90
45849;DHT22;31567;54.600;9.842;2024-02-21T19:59:09;9.80;99.90
45849;DHT22;31567;54.600;9.842;2024-02-21T20:02:49;9.80;99.90
45849;DHT22;31567;54.600;9.842;2024-02-21T20:06:30;9.80;99.90
45849;DHT22;31567;54.600;9.842;2024-02-21T20:10:10;9.80;99.90
45849;DHT22;31567;54.600;9.842;2024-02-21T20:13:51;9.70;99.90
45849;DHT22;31567;54.600;9.842;2024-02-21T20:17:31;9.70;99.90
45849;DHT22;31567;54.600;9.842;2024-02-21T20:21:10;9.70;99.90
45849;DHT22;31567;54.600;9.842;2024-02-21T20:24:50;9.70;99.90
45849;DHT22;31567;54.600;9.842;2024-02-21T20:28:30;9.80;99.90
45849;DHT22;31567;54.600;9.842;2024-02-21T20:32:10;9.80;99.90
45849;DHT22;31567;54.600;9.842;2024-02-21T20:35:50;9.70;99.90
45849;DHT22;31567;54.600;9.842;2024-02-21T20:39:29;9.70;99.90
45849;DHT22;31567;54.600;9.842;2024-02-21T20:43:09;9.70;99.90
45849;DHT22;31567;54.600;9.842;2024-02-21T20:46:49;9.70;99.90
45849;DHT22;31567;54.600;9.842;2024-02-21T20:50:28;9.60;99.90
45849;DHT22;31567;54.600;9.842;2024-02-21T20:54:08;9.60;99.90
45849;DHT22;31567;54.600;9.842;2024-02-21T20:57:48;9.60;99.90
45849;DHT22;31567;54.600;9.842;2024-02-21T21:01:27;9.60;99.90
45849;DHT22;31567;54.600;9.842;2024-02-21T21:05:07;9.60;99.90
45849;DHT22;31567;54.600;9.842;2024-02-21T21:08:47;9.50;99.90
45849;DHT22;31567;54.600;9.842;2024-02-21T21:12:26;9.50;99.90
45849;DHT22;31567;54.600;9.842;2024-02-21T21:16:06;9.40;99.90
45849;DHT22;31567;54.600;9.842;2024-02-21T21:19:46;9.50;99.90
45849;DHT22;31567;54.600;9.842;2024-02-21T21:23:25;9.40;99.90
45849;DHT22;31567;54.600;9.842;2024-02-21T21:27:05;9.40;99.90
45849;DHT22;31567;54.600;9.842;2024-02-21T21:30:46;9.40;99.90
45849;DHT22;31567;54.600;9.842;2024-02-21T21:34:25;9.40;99.90
45849;DHT22;31567;54.600;9.842;2024-02-21T21:38:06;9.30;99.90
45849;DHT22;31567;54.600;9.842;2024-02-21T21:41:45;9.40;99.90
45849;DHT22;31567;54.600;9.842;2024-02-21T21:45:25;9.30;99.90
45849;DHT22;31567;54.600;9.842;2024-02-21T21:49:06;9.30;99.90
45849;DHT22;31567;54.600;9.842;2024-02-21T21:52:45;9.30;99.90
45849;DHT22;31567;54.600;9.842;2024-02-21T21:56:25;9.30;99.90
45849;DHT22;31567;54.600;9.842;2024-02-21T22:00:05;9.30;99.90
45849;DHT22;31567;54.600;9.842;2024-02-21T22:03:47;9.30;99.90
45849;DHT22;31567;54.600;9.842;2024-02-21T22:07:26;9.30;99.90
45849;DHT22;31567;54.600;9.842;2024-02-21T22:11:06;9.30;99.90
45849;DHT22;31567;54.600;9.842;2024-02-21T22:14:47;9.30;99.90
45849;DHT22;31567;54.600;9.842;2024-02-21T22:18:27;9.30;99.90
45849;DHT22;31567;54.600;9.842;2024-02-21T22:22:07;9.30;99.90
45849;DHT22;31567;54.600;9.842;2024-02-21T22:25:47;9.30;99.90
45849;DHT22;31567;54.600;9.842;2024-02-21T22:29:27;9.20;99.90
45849;DHT22;31567;54.600;9.842;2024-02-21T22:33:08;9.20;99.90
45849;DHT22;31567;54.600;9.842;2024-02-21T22:36:48;9.30;99.90
45849;DHT22;31567;54.600;9.842;2024-02-21T22:40:27;9.30;99.90
45849;DHT22;31567;54.600;9.842;2024-02-21T22:44:08;9.30;99.90
45849;DHT22;31567;54.600;9.842;2024-02-21T22:47:47;9.30;99.90
45849;DHT22;31567;54.600;9.842;2024-02-21T22:51:28;9.30;99.90
45849;DHT22;31567;54.600;9.842;2024-02-21T22:55:08;9.30;99.90
45849;DHT22;31567;54.600;9.842;2024-02-21T22:58:50;9.30;99.90
45849;DHT22;31567;54.600;9.842;2024-02-21T23:02:30;9.20;99.90
45849;DHT22;31567;54.600;9.842;2024-02-21T23:06:10;9.30;99.90
45849;DHT22;31567;54.600;9.842;2024-02-21T23:09:49;9.20;99.90
45849;DHT22;31567;54.600;9.842;2024-02-21T23:13:30;9.20;99.90
45849;DHT22;31567;54.600;9.842;2024-02-21T23:17:09;9.30;99.90
45849;DHT22;31567;54.600;9.842;2024-02-21T23:20:49;9.20;99.90
45849;DHT22;31567;54.600;9.842;2024-02-21T23:24:29;9.20;99.90
45849;DHT22;31567;54.600;9.842;2024-02-21T23:28:08;9.30;99.90
45849;DHT22;31567;54.600;9.842;2024-02-21T23:31:48;9.20;99.90